createdAt,value
2022-07-26T00:01:59.740Z,4.67
2022-07-26T00:04:28.274Z,3.83
2022-07-26T00:06:57.116Z,4.10
2022-07-26T00:09:24.719Z,5.70
2022-07-26T00:11:52.564Z,5.70
2022-07-26T00:14:20.390Z,3.53
2022-07-26T00:16:48.324Z,4.67
2022-07-26T00:19:16.026Z,4.60
2022-07-26T00:21:43.686Z,3.40
2022-07-26T00:24:11.425Z,5.53
2022-07-26T00:26:39.162Z,11.63
2022-07-26T00:29:07.976Z,4.30
2022-07-26T00:31:35.974Z,5.03
2022-07-26T00:34:03.660Z,3.43
2022-07-26T00:36:31.137Z,4.30
2022-07-26T00:38:59.202Z,3.30
2022-07-26T00:41:26.683Z,3.83
2022-07-26T00:44:00.484Z,8.60
2022-07-26T00:46:28.754Z,7.53
2022-07-26T00:48:56.781Z,5.00
2022-07-26T00:51:24.783Z,3.90
2022-07-26T00:53:52.438Z,3.50
2022-07-26T00:56:20.914Z,9.63
2022-07-26T00:58:48.609Z,3.93
2022-07-26T01:01:16.228Z,5.73
2022-07-26T01:03:44.457Z,4.17
2022-07-26T01:06:12.545Z,4.17
2022-07-26T01:08:40.773Z,4.53
2022-07-26T01:11:08.433Z,6.63
2022-07-26T01:13:35.943Z,6.50
2022-07-26T01:16:04.762Z,7.40
2022-07-26T01:18:32.249Z,6.00
2022-07-26T01:21:13.273Z,4.83
2022-07-26T01:23:44.525Z,4.83
2022-07-26T01:26:13.814Z,7.00
2022-07-26T01:28:42.810Z,9.60
2022-07-26T01:31:11.821Z,8.80
2022-07-26T01:33:39.766Z,8.10
2022-07-26T01:36:08.837Z,9.77
2022-07-26T01:38:36.528Z,11.73
2022-07-26T01:41:05.627Z,6.57
2022-07-26T01:43:33.213Z,7.00
2022-07-26T01:46:00.836Z,6.57
2022-07-26T01:48:28.727Z,6.70
2022-07-26T01:50:58.155Z,7.67
2022-07-26T01:53:25.929Z,6.97
2022-07-26T01:55:53.593Z,6.80
2022-07-26T01:58:22.917Z,7.13
2022-07-26T02:00:50.886Z,11.93
2022-07-26T02:03:18.632Z,7.03
2022-07-26T02:05:46.265Z,8.23
2022-07-26T02:08:13.818Z,5.83
2022-07-26T02:11:00.078Z,7.80
2022-07-26T02:13:41.634Z,7.47
2022-07-26T02:16:15.969Z,7.63
2022-07-26T02:18:43.500Z,7.47
2022-07-26T02:21:11.041Z,7.37
2022-07-26T02:23:40.713Z,6.27
2022-07-26T02:26:11.082Z,6.63
2022-07-26T02:28:38.611Z,9.03
2022-07-26T02:31:06.241Z,8.30
2022-07-26T02:33:34.250Z,8.03
2022-07-26T02:36:02.297Z,6.20
2022-07-26T02:38:29.855Z,9.03
2022-07-26T02:40:57.578Z,8.00
2022-07-26T02:43:25.065Z,9.77
2022-07-26T02:46:03.725Z,12.10
2022-07-26T02:48:32.141Z,9.63
2022-07-26T02:51:00.592Z,11.33
2022-07-26T02:53:28.466Z,8.47
2022-07-26T02:55:56.592Z,11.50
2022-07-26T02:58:26.926Z,10.73
2022-07-26T03:00:55.081Z,7.03
2022-07-26T03:03:22.605Z,8.63
2022-07-26T03:05:56.146Z,12.10
2022-07-26T03:08:23.958Z,7.30
2022-07-26T03:10:52.500Z,9.67
2022-07-26T03:13:20.054Z,7.50
2022-07-26T03:15:47.588Z,12.73
2022-07-26T03:18:15.176Z,9.33
2022-07-26T03:20:42.651Z,10.90
2022-07-26T03:23:10.217Z,8.40
2022-07-26T03:25:39.335Z,10.03
2022-07-26T03:28:06.878Z,8.37
2022-07-26T03:30:35.139Z,9.43
2022-07-26T03:33:03.333Z,5.50
2022-07-26T03:35:30.848Z,9.53
2022-07-26T03:38:04.535Z,9.13
2022-07-26T03:40:32.109Z,13.13
2022-07-26T03:42:59.552Z,14.00
2022-07-26T03:45:27.162Z,10.77
2022-07-26T03:47:54.648Z,10.50
2022-07-26T03:50:22.429Z,9.37
2022-07-26T03:52:49.956Z,9.10
2022-07-26T03:55:36.686Z,12.63
2022-07-26T03:58:04.236Z,10.50
2022-07-26T04:00:31.926Z,12.90
2022-07-26T04:03:00.056Z,19.03
2022-07-26T04:05:27.712Z,14.40
2022-07-26T04:07:55.989Z,12.17
2022-07-26T04:10:24.372Z,16.40
2022-07-26T04:12:52.293Z,17.30
2022-07-26T04:15:21.371Z,18.80
2022-07-26T04:17:49.773Z,13.57
2022-07-26T04:20:18.202Z,18.70
2022-07-26T04:22:46.400Z,19.90
2022-07-26T04:25:14.151Z,15.97
2022-07-26T04:27:43.501Z,19.73
2022-07-26T04:30:16.983Z,11.13
2022-07-26T04:32:48.739Z,10.13
2022-07-26T04:35:16.578Z,13.37
2022-07-26T04:37:46.427Z,14.30
2022-07-26T04:40:23.696Z,12.83
2022-07-26T04:42:52.801Z,17.23
2022-07-26T04:45:22.374Z,12.10
2022-07-26T04:47:51.757Z,19.40
2022-07-26T04:50:24.167Z,19.20
2022-07-26T04:52:53.039Z,14.20
2022-07-26T04:55:27.072Z,17.43
2022-07-26T04:57:54.786Z,14.13
2022-07-26T05:00:25.265Z,16.80
2022-07-26T05:03:01.934Z,12.53
2022-07-26T05:05:35.319Z,11.63
2022-07-26T05:08:04.233Z,11.20
2022-07-26T05:10:38.391Z,8.17
2022-07-26T05:13:07.849Z,15.90
2022-07-26T05:15:37.164Z,8.60
2022-07-26T05:18:13.729Z,14.60
2022-07-26T05:20:41.610Z,10.77
2022-07-26T05:23:09.708Z,14.23
2022-07-26T05:25:39.254Z,12.73
2022-07-26T05:28:06.720Z,13.50
2022-07-26T05:30:35.041Z,11.47
2022-07-26T05:33:20.678Z,12.40
2022-07-26T05:35:48.586Z,17.63
2022-07-26T05:38:16.061Z,9.07
2022-07-26T05:40:48.603Z,11.67
2022-07-26T05:43:19.299Z,11.67
2022-07-26T05:45:47.113Z,16.57
2022-07-26T05:48:15.024Z,10.93
2022-07-26T05:50:43.270Z,14.37
2022-07-26T05:53:10.887Z,7.07
2022-07-26T05:55:38.996Z,13.73
2022-07-26T05:58:07.721Z,10.87
2022-07-26T06:00:35.784Z,12.07
2022-07-26T06:03:22.102Z,11.53
2022-07-26T06:05:57.163Z,12.97
2022-07-26T06:08:27.287Z,10.53
2022-07-26T06:10:55.700Z,13.60
2022-07-26T06:13:24.327Z,9.97
2022-07-26T06:15:52.781Z,9.93
2022-07-26T06:18:20.479Z,12.47
2022-07-26T06:20:50.405Z,13.30
2022-07-26T06:23:33.930Z,15.50
2022-07-26T06:26:06.061Z,8.63
2022-07-26T06:28:34.866Z,9.53
2022-07-26T06:31:02.724Z,11.20
2022-07-26T06:33:30.344Z,11.57
2022-07-26T06:35:58.209Z,11.97
2022-07-26T06:38:27.094Z,17.80
2022-07-26T06:40:54.978Z,20.27
2022-07-26T06:43:22.660Z,19.43
2022-07-26T06:45:51.176Z,7.67
2022-07-26T06:48:18.909Z,8.27
2022-07-26T06:50:46.476Z,12.40
2022-07-26T06:53:14.075Z,9.23
2022-07-26T06:55:43.566Z,13.23
2022-07-26T06:58:11.045Z,15.00
2022-07-26T07:00:40.735Z,11.90
2022-07-26T07:03:09.311Z,13.77
2022-07-26T07:05:37.216Z,21.43
2022-07-26T07:08:07.410Z,11.23
2022-07-26T07:10:36.423Z,13.00
2022-07-26T07:13:04.662Z,11.47
2022-07-26T07:15:32.180Z,9.27
2022-07-26T07:18:00.002Z,10.27
2022-07-26T07:20:28.499Z,12.93
2022-07-26T07:22:56.356Z,10.80
2022-07-26T07:25:30.876Z,6.80
2022-07-26T07:28:00.513Z,10.03
2022-07-26T07:30:29.390Z,8.13
2022-07-26T07:32:57.546Z,8.47
2022-07-26T07:35:31.568Z,10.20
2022-07-26T07:38:00.375Z,9.63
2022-07-26T07:40:28.371Z,10.13
2022-07-26T07:42:59.979Z,11.43
2022-07-26T07:45:28.077Z,11.27
2022-07-26T07:47:56.417Z,6.03
2022-07-26T07:50:28.256Z,8.57
2022-07-26T07:52:57.950Z,9.23
2022-07-26T07:55:43.920Z,10.20
2022-07-26T07:58:18.935Z,8.30
2022-07-26T08:00:48.683Z,15.00
2022-07-26T08:03:18.735Z,12.70
2022-07-26T08:05:50.556Z,9.47
2022-07-26T08:08:22.335Z,8.93
2022-07-26T08:10:53.241Z,10.60
2022-07-26T08:13:24.937Z,6.90
2022-07-26T08:15:56.048Z,12.83
2022-07-26T08:18:25.381Z,10.80
2022-07-26T08:20:54.692Z,8.53
2022-07-26T08:23:23.452Z,11.23
2022-07-26T08:25:57.845Z,10.87
2022-07-26T08:28:46.939Z,9.20
2022-07-26T08:31:20.131Z,5.73
2022-07-26T08:33:49.735Z,11.90
2022-07-26T08:36:18.688Z,9.10
2022-07-26T08:38:47.608Z,7.03
2022-07-26T08:41:18.808Z,6.00
2022-07-26T08:43:52.822Z,8.03
2022-07-26T08:46:27.642Z,7.33
2022-07-26T08:48:58.854Z,4.97
2022-07-26T08:51:27.688Z,7.67
2022-07-26T08:54:07.864Z,7.97
2022-07-26T08:56:49.738Z,4.40
2022-07-26T08:59:22.441Z,7.97
2022-07-26T09:02:09.716Z,10.07
2022-07-26T09:04:46.571Z,6.83
2022-07-26T09:07:21.096Z,10.90
2022-07-26T09:10:15.337Z,7.53
2022-07-26T09:12:45.091Z,9.63
2022-07-26T09:15:28.299Z,8.87
2022-07-26T09:17:58.642Z,6.90
2022-07-26T09:20:32.293Z,5.73
2022-07-26T09:23:14.250Z,7.40
2022-07-26T09:25:46.959Z,7.07
2022-07-26T09:28:32.309Z,6.90
2022-07-26T09:31:06.799Z,6.00
2022-07-26T09:33:51.660Z,7.80
2022-07-26T09:36:20.590Z,5.33
2022-07-26T09:39:04.917Z,8.07
2022-07-26T09:41:39.096Z,5.03
2022-07-26T09:44:26.801Z,8.10
2022-07-26T09:46:59.369Z,5.87
2022-07-26T09:49:40.264Z,7.80
2022-07-26T09:52:28.920Z,6.33
2022-07-26T09:55:09.842Z,9.13
2022-07-26T09:57:38.088Z,8.53
2022-07-26T10:00:08.407Z,11.50
2022-07-26T10:02:36.024Z,8.47
2022-07-26T10:05:03.747Z,5.13
2022-07-26T10:07:32.307Z,7.27
2022-07-26T10:10:14.121Z,4.23
2022-07-26T10:12:45.540Z,3.77
2022-07-26T10:15:52.221Z,5.80
2022-07-26T10:18:44.085Z,3.80
2022-07-26T10:21:27.479Z,7.40
2022-07-26T10:24:00.888Z,7.27
2022-07-26T10:26:38.947Z,6.40
2022-07-26T10:29:26.800Z,4.87
2022-07-26T10:32:06.046Z,3.57
2022-07-26T10:34:41.330Z,4.83
2022-07-26T10:37:23.962Z,7.20
2022-07-26T10:40:22.889Z,4.30
2022-07-26T10:42:52.234Z,2.93
2022-07-26T10:45:24.520Z,3.97
2022-07-26T10:48:24.610Z,4.40
2022-07-26T10:50:55.303Z,4.67
2022-07-26T10:53:27.817Z,5.07
2022-07-26T10:56:02.066Z,5.07
2022-07-26T10:58:44.900Z,5.80
2022-07-26T11:01:14.209Z,5.10
2022-07-26T11:03:45.083Z,3.20
2022-07-26T11:06:20.286Z,3.53
2022-07-26T11:08:49.505Z,4.10
2022-07-26T11:11:32.972Z,3.50
2022-07-26T11:14:14.915Z,3.50
2022-07-26T11:16:50.120Z,3.20
2022-07-26T11:19:26.098Z,2.60
2022-07-26T11:22:01.133Z,2.27
2022-07-26T11:24:30.591Z,1.60
2022-07-26T11:27:04.937Z,1.80
2022-07-26T11:29:38.531Z,1.60
2022-07-26T11:32:25.534Z,1.80
2022-07-26T11:35:06.863Z,2.70
2022-07-26T11:37:34.606Z,2.00
2022-07-26T11:40:02.840Z,1.77
2022-07-26T11:42:30.515Z,2.80
2022-07-26T11:44:58.788Z,1.80
2022-07-26T11:47:27.203Z,2.43
2022-07-26T11:52:44.426Z,1.70
2022-07-26T11:55:12.581Z,2.10
2022-07-26T11:57:40.688Z,4.70
2022-07-26T12:00:10.657Z,1.50
2022-07-26T12:02:38.687Z,1.50
2022-07-26T12:05:24.030Z,2.97
2022-07-26T12:08:07.476Z,1.73
2022-07-26T12:10:35.590Z,1.83
2022-07-26T12:13:15.550Z,2.83
2022-07-26T12:15:53.947Z,1.70
2022-07-26T12:18:35.401Z,1.90
2022-07-26T12:21:09.740Z,2.03
2022-07-26T12:23:50.944Z,2.33
2022-07-26T12:26:34.239Z,1.60
2022-07-26T12:29:21.788Z,2.50
2022-07-26T12:32:14.494Z,1.77
2022-07-26T12:35:16.061Z,1.60
2022-07-26T12:37:46.577Z,2.60
2022-07-26T12:40:28.904Z,3.27
2022-07-26T12:43:02.914Z,2.17
2022-07-26T12:45:35.849Z,2.07
2022-07-26T12:48:11.393Z,2.40
2022-07-26T12:50:39.341Z,4.20
2022-07-26T12:53:21.159Z,2.10
2022-07-26T12:55:49.056Z,4.37
2022-07-26T12:58:16.589Z,3.30
2022-07-26T13:00:47.766Z,3.03
2022-07-26T13:03:15.907Z,3.20
2022-07-26T13:05:43.461Z,3.77
2022-07-26T13:08:10.955Z,3.10
2022-07-26T13:10:38.527Z,2.23
2022-07-26T13:13:09.049Z,2.90
2022-07-26T13:15:37.986Z,2.60
2022-07-26T13:18:09.090Z,1.80
2022-07-26T13:20:41.107Z,1.50
2022-07-26T13:23:13.967Z,3.67
2022-07-26T13:25:48.762Z,2.90
2022-07-26T13:28:22.414Z,1.70
2022-07-26T13:30:51.202Z,3.30
2022-07-26T13:33:18.764Z,2.43
2022-07-26T13:35:46.508Z,2.53
2022-07-26T13:38:19.757Z,4.07
2022-07-26T13:40:47.588Z,4.00
2022-07-26T13:43:16.565Z,2.50
2022-07-26T13:45:45.066Z,1.87
2022-07-26T13:48:12.660Z,2.80
2022-07-26T13:50:40.460Z,2.47
2022-07-26T13:53:08.269Z,4.80
2022-07-26T13:55:35.886Z,3.93
2022-07-26T13:58:09.492Z,2.53
2022-07-26T14:00:40.803Z,2.70
2022-07-26T14:03:08.960Z,2.53
2022-07-26T14:05:37.261Z,2.10
2022-07-26T14:08:06.377Z,2.50
2022-07-26T14:10:39.790Z,2.47
2022-07-26T14:13:09.713Z,3.00
2022-07-26T14:15:37.961Z,3.30
2022-07-26T14:18:06.569Z,2.57
2022-07-26T14:20:35.031Z,2.53
2022-07-26T14:23:02.490Z,3.77
2022-07-26T14:25:30.333Z,2.90
2022-07-26T14:28:00.855Z,2.40
2022-07-26T14:30:28.558Z,2.67
2022-07-26T14:32:56.069Z,4.00
2022-07-26T14:35:24.385Z,2.00
2022-07-26T14:37:52.136Z,3.20
2022-07-26T14:40:20.004Z,2.00
2022-07-26T14:42:47.699Z,2.83
2022-07-26T14:45:16.246Z,2.03
2022-07-26T14:47:44.856Z,3.40
2022-07-26T14:50:15.658Z,2.63
2022-07-26T14:52:49.300Z,2.30
2022-07-26T14:55:21.701Z,3.00
2022-07-26T14:57:53.251Z,1.60
2022-07-26T15:00:20.989Z,2.03
2022-07-26T15:02:51.321Z,2.53
2022-07-26T15:05:20.265Z,2.80
2022-07-26T15:07:48.110Z,2.40
2022-07-26T15:10:17.294Z,1.70
2022-07-26T15:12:45.280Z,3.30
2022-07-26T15:15:13.232Z,3.00
2022-07-26T15:17:41.307Z,2.40
2022-07-26T15:20:09.318Z,3.30
2022-07-26T15:22:37.468Z,3.13
2022-07-26T15:25:06.326Z,3.07
2022-07-26T15:27:34.696Z,3.80
2022-07-26T15:30:06.998Z,3.60
2022-07-26T15:32:38.215Z,3.07
2022-07-26T15:35:07.643Z,5.03
2022-07-26T15:37:44.280Z,4.40
2022-07-26T15:40:13.675Z,2.27
2022-07-26T15:42:46.855Z,3.87
2022-07-26T15:45:16.816Z,2.93
2022-07-26T15:47:56.255Z,4.67
2022-07-26T15:50:27.688Z,4.40
2022-07-26T15:52:55.305Z,4.90
2022-07-26T15:55:23.186Z,2.70
2022-07-26T15:57:51.157Z,4.10
2022-07-26T16:00:19.253Z,4.80
2022-07-26T16:02:47.620Z,4.17
2022-07-26T16:05:16.869Z,4.67
2022-07-26T16:07:46.456Z,8.57
2022-07-26T16:10:16.564Z,4.30
2022-07-26T16:12:44.750Z,4.47
2022-07-26T16:15:13.029Z,4.53
2022-07-26T16:17:41.609Z,3.37
2022-07-26T16:20:10.795Z,2.83
2022-07-26T16:22:41.932Z,5.83
2022-07-26T16:25:13.856Z,5.90
2022-07-26T16:27:45.678Z,5.23
2022-07-26T16:30:15.517Z,6.13
2022-07-26T16:32:43.995Z,4.67
2022-07-26T16:35:12.458Z,6.30
2022-07-26T16:37:41.657Z,7.00
2022-07-26T16:40:11.527Z,5.97
2022-07-26T16:42:39.101Z,4.80
2022-07-26T16:45:09.241Z,5.80
2022-07-26T16:47:37.431Z,5.33
2022-07-26T16:50:08.130Z,8.10
2022-07-26T16:52:35.933Z,4.63
2022-07-26T16:55:04.744Z,3.90
2022-07-26T16:57:32.310Z,2.60
2022-07-26T16:59:59.983Z,3.60
2022-07-26T17:02:27.609Z,2.50
2022-07-26T17:04:57.478Z,3.40
2022-07-26T17:07:26.274Z,6.10
2022-07-26T17:09:56.913Z,3.60
2022-07-26T17:12:26.496Z,4.67
2022-07-26T17:14:54.972Z,5.37
2022-07-26T17:17:22.739Z,4.10
2022-07-26T17:19:51.625Z,6.33
2022-07-26T17:22:19.844Z,3.90
2022-07-26T17:24:49.338Z,6.80
2022-07-26T17:27:17.916Z,6.80
2022-07-26T17:29:45.674Z,6.73
2022-07-26T17:32:13.349Z,4.83
2022-07-26T17:34:42.070Z,4.03
2022-07-26T17:37:12.531Z,5.60
2022-07-26T17:39:51.784Z,7.03
2022-07-26T17:42:20.616Z,6.90
2022-07-26T17:44:48.600Z,5.23
2022-07-26T17:47:18.235Z,7.27
2022-07-26T17:50:36.014Z,4.80
2022-07-26T17:52:52.682Z,3.90
2022-07-26T17:55:21.839Z,6.83
2022-07-26T17:57:51.350Z,4.27
2022-07-26T18:00:23.247Z,7.43
2022-07-26T18:02:54.646Z,4.93
2022-07-26T18:05:22.642Z,5.37
2022-07-26T18:07:50.821Z,4.70
2022-07-26T18:10:19.621Z,8.43
2022-07-26T18:12:47.198Z,4.77
2022-07-26T18:15:16.197Z,7.73
2022-07-26T18:18:02.325Z,5.20
2022-07-26T18:20:30.096Z,5.17
2022-07-26T18:22:59.589Z,5.27
2022-07-26T18:25:27.093Z,5.43
2022-07-26T18:27:54.719Z,6.60
2022-07-26T18:30:22.872Z,6.60
2022-07-26T18:32:50.799Z,5.87
2022-07-26T18:35:18.452Z,6.00
2022-07-26T18:37:46.845Z,6.33
2022-07-26T18:40:14.535Z,5.73
2022-07-26T18:42:42.492Z,6.80
2022-07-26T18:45:10.753Z,7.53
2022-07-26T18:47:38.526Z,5.10
2022-07-26T18:50:08.068Z,8.50
2022-07-26T18:52:36.505Z,8.50
2022-07-26T18:55:12.396Z,7.37
2022-07-26T18:57:44.451Z,8.93
2022-07-26T19:00:20.462Z,7.43
2022-07-26T19:02:48.807Z,4.73
2022-07-26T19:05:16.768Z,4.33
2022-07-26T19:07:46.294Z,6.10
2022-07-26T19:10:14.058Z,6.63
2022-07-26T19:12:42.356Z,6.63
2022-07-26T19:15:11.454Z,6.40
2022-07-26T19:17:39.300Z,9.97
2022-07-26T19:20:10.407Z,9.70
2022-07-26T19:22:40.565Z,6.13
2022-07-26T19:25:10.617Z,6.17
2022-07-26T19:27:39.308Z,6.80
2022-07-26T19:30:11.381Z,6.53
2022-07-26T19:32:39.830Z,5.50
2022-07-26T19:35:09.261Z,8.20
2022-07-26T19:37:37.153Z,5.73
2022-07-26T19:40:06.722Z,7.47
2022-07-26T19:42:34.338Z,4.73
2022-07-26T19:45:02.014Z,6.67
2022-07-26T19:47:30.654Z,4.90
2022-07-26T19:49:58.952Z,9.40
2022-07-26T19:52:26.472Z,6.13
2022-07-26T19:54:54.279Z,4.27
2022-07-26T19:57:22.436Z,5.87
2022-07-26T19:59:50.580Z,4.20
2022-07-26T20:02:18.406Z,5.03
2022-07-26T20:04:46.398Z,5.07
2022-07-26T20:07:19.462Z,5.43
2022-07-26T20:09:52.087Z,5.10
2022-07-26T20:12:21.497Z,4.00
2022-07-26T20:14:49.044Z,7.70
2022-07-26T20:17:17.224Z,5.37
2022-07-26T20:19:44.994Z,5.77
2022-07-26T20:22:12.654Z,3.80
2022-07-26T20:24:41.077Z,2.80
2022-07-26T20:27:08.887Z,4.33
2022-07-26T20:29:36.846Z,5.63
2022-07-26T20:32:05.080Z,6.07
2022-07-26T20:34:32.610Z,7.97
2022-07-26T20:37:00.141Z,10.60
2022-07-26T20:39:28.275Z,5.07
2022-07-26T20:41:57.281Z,4.60
2022-07-26T20:44:28.398Z,3.37
2022-07-26T20:46:56.453Z,4.00
2022-07-26T20:49:24.144Z,4.40
2022-07-26T20:51:51.787Z,4.10
2022-07-26T20:54:19.292Z,3.67
2022-07-26T20:56:46.821Z,7.90
2022-07-26T20:59:14.831Z,4.73
2022-07-26T21:01:44.102Z,5.13
2022-07-26T21:04:12.184Z,5.60
2022-07-26T21:06:39.828Z,6.47
2022-07-26T21:09:08.994Z,8.83
2022-07-26T21:11:39.925Z,3.40
2022-07-26T21:14:07.514Z,5.77
2022-07-26T21:16:36.619Z,5.23
2022-07-26T21:19:05.989Z,3.10
2022-07-26T21:21:34.810Z,6.60
2022-07-26T21:24:02.886Z,4.03
2022-07-26T21:26:30.634Z,4.90
2022-07-26T21:28:59.149Z,5.10
2022-07-26T21:31:27.731Z,3.57
2022-07-26T21:33:55.694Z,3.80
2022-07-26T21:36:23.452Z,5.73
2022-07-26T21:38:50.941Z,7.13
2022-07-26T21:41:19.128Z,4.80
2022-07-26T21:43:47.008Z,5.20
2022-07-26T21:46:15.686Z,3.30
2022-07-26T21:48:44.196Z,8.20
2022-07-26T21:51:11.861Z,7.67
2022-07-26T21:53:39.864Z,4.80
2022-07-26T21:56:07.707Z,4.20
2022-07-26T21:58:36.867Z,3.83
2022-07-26T22:01:08.004Z,5.30
2022-07-26T22:03:39.461Z,5.10
2022-07-26T22:06:09.447Z,4.77
2022-07-26T22:08:38.914Z,4.43
2022-07-26T22:11:07.162Z,4.90
2022-07-26T22:13:35.110Z,3.37
2022-07-26T22:16:03.502Z,5.03
2022-07-26T22:18:31.664Z,7.70
2022-07-26T22:21:01.128Z,4.23
2022-07-26T22:23:31.956Z,2.70
2022-07-26T22:26:04.416Z,7.13
2022-07-26T22:28:35.379Z,6.60
2022-07-26T22:31:02.955Z,2.97
2022-07-26T22:33:30.541Z,6.43
2022-07-26T22:35:58.113Z,4.77
2022-07-26T22:38:25.821Z,5.33
2022-07-26T22:40:53.446Z,8.43
2022-07-26T22:43:21.560Z,9.20
2022-07-26T22:45:49.313Z,4.13
2022-07-26T22:48:16.945Z,9.23
2022-07-26T22:50:45.071Z,7.50
2022-07-26T22:53:12.647Z,3.73
2022-07-26T22:55:41.051Z,5.90
2022-07-26T22:58:09.044Z,4.67
2022-07-26T23:00:37.788Z,4.83
2022-07-26T23:03:09.698Z,3.13
2022-07-26T23:05:49.208Z,5.33
2022-07-26T23:08:44.435Z,3.47
2022-07-26T23:11:06.526Z,4.37
2022-07-26T23:13:34.534Z,7.57
2022-07-26T23:16:02.381Z,6.83
2022-07-26T23:18:31.771Z,3.90
2022-07-26T23:21:00.269Z,4.87
2022-07-26T23:23:29.686Z,4.40
2022-07-26T23:26:00.902Z,5.20
2022-07-26T23:28:36.782Z,6.27
2022-07-26T23:31:10.350Z,3.60
2022-07-26T23:33:50.679Z,4.20
2022-07-26T23:36:28.152Z,5.73
2022-07-26T23:39:00.656Z,6.33
2022-07-26T23:41:29.013Z,5.73
2022-07-26T23:43:58.715Z,3.43
2022-07-26T23:46:27.651Z,4.03
2022-07-26T23:48:58.800Z,2.47
2022-07-26T23:51:26.455Z,7.10
2022-07-26T23:53:55.036Z,7.50
2022-07-26T23:56:23.467Z,5.63
2022-07-26T23:58:51.465Z,6.50
